ADDS METAR Data INFO
IDs: Format: Raw Decoded Include TAF

Data at: 0716 UTC 24 Jun 2018

KTTF 240659Z AUTO 24004KT 10SM CLR 18/17 A2978 RMK AO2 T01780167
KTTF 240639Z AUTO 27006KT 10SM SCT080 18/17 A2979 RMK AO2 T01820171
KTTF 240619Z AUTO 25003KT 10SM SCT043 SCT080 19/18 A2979 RMK AO2 T01860175
KTTF 240558Z AUTO 26005KT 10SM SCT031 BKN043 19/18 A2979 RMK AO2 60001 T01910180 10235 20191
KTTF 240538Z AUTO 26005KT 10SM BKN028 OVC034 20/19 A2979 RMK AO2 T01970186
KTTF 240518Z AUTO 25005KT 10SM OVC028 20/19 A2978 RMK AO2 T01980187
KTTF 240458Z AUTO 24006KT 10SM BKN028 OVC044 20/19 A2978 RMK AO2 T01980187
KTTF 240438Z AUTO 26004KT 10SM BKN026 OVC085 20/19 A2978 RMK AO2 T01960185
KTTF 240417Z AUTO 25003KT 10SM OVC024 20/19 A2977 RMK AO2 T01970186
KTTF 240357Z AUTO 24003KT 10SM SCT024 BKN055 OVC085 20/19 A2977 RMK AO2 T01970186 402520191
KTTF 240337Z AUTO 24003KT 10SM SCT055 BKN065 20/19 A2978 RMK AO2 T01970186
KTTF 240317Z AUTO 25005KT 10SM SCT055 BKN065 20/19 A2977 RMK AO2 T02020191
KTTF 240257Z AUTO 26005KT 10SM SCT060 20/19 A2977 RMK AO2 60001 T02040192
KTTF 240237Z AUTO 26006KT 10SM BKN060 BKN085 21/20 A2976 RMK AO2 T02090197
KTTF 240217Z AUTO 26006KT 10SM OVC060 21/20 A2976 RMK AO2 T02130199
KTTF 240157Z AUTO 24006KT 10SM OVC050 21/20 A2975 RMK AO2 T02120200
KTTF 240137Z AUTO 25007KT 10SM -RA BKN050 BKN065 21/20 A2974 RMK AO2 T02140197
KTTF 240117Z AUTO 25006KT 10SM SCT065 SCT085 22/20 A2974 RMK AO2 T02150200
KTTF 240056Z AUTO 25007KT 10SM SCT050 SCT065 OVC085 22/20 A2974 RMK AO2 P0001 T02200201
KTTF 240036Z AUTO 25009KT 10SM SCT033 OVC055 22/21 A2973 RMK AO2 P0001 T02200207
KTTF 240016Z AUTO 26010KT 7SM +RA SCT026 BKN033 OVC055 23/21 A2973 RMK AO2 P0001 T02270206
KTTF 232356Z AUTO 26008KT 250V350 10SM SCT026 BKN035 BKN044 24/20 A2973 RMK AO2 T02350197 10251 20231
KTTF 232336Z AUTO 31008G18KT 270V350 10SM SCT044 SCT060 24/19 A2972 RMK AO2 T02410190
KTTF 232316Z AUTO 28011G17KT 10SM SCT060 SCT100 25/19 A2972 RMK AO2 T02500191
KTTF 232256Z AUTO 28010G16KT 10SM SCT070 BKN100 25/20 A2971 RMK AO2 T02490201
KTTF 232236Z AUTO 27010G16KT 10SM OVC070 24/19 A2971 RMK AO2 T02410194
KTTF 232216Z AUTO 27009G15KT 10SM BKN070 OVC095 24/20 A2971 RMK AO2 T02400195
KTTF 232156Z AUTO 26011G17KT 10SM SCT050 BKN060 OVC095 24/19 A2971 RMK AO2 T02370194
KTTF 232136Z AUTO 27011G17KT 10SM SCT030 BKN060 OVC100 24/20 A2971 RMK AO2 T02390199
KTTF 232116Z AUTO 26009G14KT 10SM -DZ SCT024 BKN031 OVC055 24/20 A2971 RMK AO2 T02360202
KTTF 232056Z AUTO 24010KT 10SM SCT019 BKN027 OVC032 24/20 A2971 RMK AO2 T02380202
KTTF 232035Z AUTO 16004KT 10SM SCT027 BKN031 OVC045 24/21 A2970 RMK AO2 T02440207
KTTF 232015Z AUTO 00000KT 10SM SCT029 BKN042 OVC049 24/20 A2970 RMK AO2 T02410197
KTTF 231955Z AUTO 00000KT 10SM SCT026 BKN046 BKN070 24/21 A2969 RMK AO2 T02360212
KTTF 231935Z AUTO 35004KT 10SM SCT025 SCT029 BKN085 25/20 A2968 RMK AO2 T02500196
KTTF 231915Z AUTO 00000KT 10SM SCT023 BKN027 BKN037 24/20 A2968 RMK AO2 T02410199
KTTF 231855Z AUTO 00000KT 10SM SCT023 BKN039 BKN050 25/20 A2969 RMK AO2 T02460201
KTTF 231835Z AUTO 34003KT 10SM SCT018 BKN050 OVC080 24/20 A2969 RMK AO2 T02370199
KTTF 231815Z AUTO 32006KT 10SM SCT036 SCT046 BKN070 24/20 A2969 RMK AO2 T02410200
KTTF 231755Z AUTO 32004KT 10SM SCT048 BKN080 OVC100 23/21 A2969 RMK AO2 60006 T02330205 10252 20203
KTTF 231735Z AUTO 33006KT 10SM SCT034 BKN043 OVC049 22/21 A2969 RMK AO2 T02230210
KTTF 231715Z AUTO 31006G17KT 10SM -RA BKN019 BKN033 OVC047 23/20 A2968 RMK AO2 T02270204
KTTF 231659Z AUTO 28009G16KT 10SM BKN019 BKN030 BKN040 25/21 A2968 RMK AO2 T02490205
KTTF 231639Z AUTO 29013G16KT 10SM BKN017 BKN026 BKN110 24/21 A2968 RMK AO2 T02410208
KTTF 231619Z AUTO 31007G16KT 10SM BKN015 BKN026 BKN037 24/21 A2968 RMK AO2 T02390208
KTTF 231559Z AUTO 29010G17KT 10SM SCT009 BKN013 BKN018 24/21 A2969 RMK AO2 T02360213
KTTF 231539Z AUTO 29012G15KT 10SM OVC007 22/21 A2968 RMK AO2 T02220211
KTTF 231519Z AUTO 28010G14KT 10SM OVC007 21/20 A2968 RMK AO2 T02110200
KTTF 231459Z AUTO 30008KT 260V320 10SM -DZ BKN007 OVC021 21/20 A2967 RMK AO2 P0002 60006 T02100198
KTTF 231439Z AUTO 27007KT 10SM -RA BKN007 BKN018 OVC023 21/20 A2967 RMK AO2 P0002 T02060195
KTTF 231419Z AUTO 29010G14KT 7SM -RA BKN007 OVC017 21/20 A2967 RMK AO2 P0001 T02050195
KTTF 231359Z AUTO 27007G15KT 7SM -RA BKN005 BKN017 OVC050 21/20 A2967 RMK AO2 P0004 T02130202
KTTF 231339Z AUTO 27007KT 5SM RA SCT005 OVC050 21/20 A2967 RMK AO2 P0003 T02130202
KTTF 231318Z AUTO 26008KT 5SM -RA SCT006 BKN025 OVC048 21/20 A2967 RMK AO2 T02060195
KTTF 231258Z AUTO 25008KT 10SM SCT008 OVC015 21/19 A2967 RMK AO2 T02050194
KTTF 231238Z AUTO 21006KT 7SM BKN008 OVC013 21/20 A2967 RMK AO2 T02070196
KTTF 231218Z AUTO 19011KT 7SM BKN010 OVC013 21/19 A2967 RMK AO2 T02050194
KTTF 231158Z AUTO 19011KT 10SM OVC010 20/19 A2967 RMK AO2 60001 70001 T02030192 10205 20195
KTTF 231138Z AUTO 20010KT 10SM OVC010 21/19 A2967 RMK AO2 T02050193
KTTF 231118Z AUTO 00000KT 7SM SCT008 OVC013 21/19 A2966 RMK AO2 T02050194
KTTF 231058Z AUTO 00000KT 10SM SCT008 BKN014 OVC019 21/20 A2966 RMK AO2 T02050195
KTTF 231038Z AUTO 14003KT 10SM BKN008 OVC013 21/19 A2966 RMK AO2 T02050193
KTTF 231018Z AUTO 10008KT 7SM BKN010 OVC017 20/19 A2966 RMK AO2 T02010190
KTTF 230958Z AUTO 11004KT 10SM OVC010 20/19 A2965 RMK AO2 T02000190
KTTF 230938Z AUTO 08006KT 10SM OVC010 20/19 A2965 RMK AO2 T01990187
KTTF 230917Z AUTO 00000KT 7SM BKN008 OVC014 20/19 A2966 RMK AO2 T01960185
KTTF 230857Z AUTO 00000KT 7SM -RA BKN011 BKN050 OVC070 20/19 A2965 RMK AO2 P0001 60001 T01960185
KTTF 230837Z AUTO 00000KT 10SM BKN013 OVC065 20/19 A2965 RMK AO2 P0001 T01970186
KTTF 230817Z AUTO 06003KT 10SM -RA BKN013 BKN019 OVC100 20/19 A2965 RMK AO2 P0001 T01990187
KTTF 230757Z AUTO 09010KT 10SM -RA OVC013 20/19 A2966 RMK AO2 T02000190
KTTF 230737Z AUTO 11008KT 10SM -RA BKN007 OVC013 20/19 A2967 RMK AO2 T02000188
KTTF 230717Z AUTO 10008KT 10SM BKN007 OVC012 20/19 A2967 RMK AO2 T01980187
KTTF 230657Z AUTO 09007KT 10SM -RA OVC009 20/19 A2967 RMK AO2 T01970186
KTTF 230637Z AUTO 10008KT 10SM -DZ OVC012 20/19 A2968 RMK AO2 T01970186
KTTF 230617Z AUTO 10007KT 10SM OVC012 20/19 A2968 RMK AO2 T01960185
KTTF 230555Z AUTO 10008KT 10SM OVC012 20/18 A2969 RMK AO2 T01950183 10197 20180
KTTF 230535Z AUTO 08005KT 10SM SCT008 OVC012 19/18 A2969 RMK AO2 T01940183
KTTF 230515Z AUTO 10008KT 10SM BKN008 BKN012 19/18 A2969 RMK AO2 T01920181
KTTF 230455Z AUTO 10007KT 10SM BKN008 19/18 A2969 RMK AO2 T01920181
KTTF 230435Z AUTO 09007KT 10SM BKN010 20/18 A2970 RMK AO2 T01950183
KTTF 230415Z AUTO 10008KT 070V130 10SM OVC010 20/19 A2970 RMK AO2 T01970186
KTTF 230355Z AUTO 10009KT 10SM OVC010 20/19 A2970 RMK AO2 T01970186 402190176
KTTF 230335Z AUTO 09008KT 10SM OVC008 20/19 A2970 RMK AO2 T01950185
KTTF 230319Z AUTO 08004KT 10SM OVC008 19/18 A2970 RMK AO2 T01900180
KTTF 230259Z AUTO 05003KT 10SM OVC008 19/18 A2971 RMK AO2 T01880177
KTTF 230239Z AUTO 05004KT 10SM OVC008 19/18 A2971 RMK AO2 T01860175
KTTF 230219Z AUTO 05004KT 10SM OVC008 18/17 A2971 RMK AO2 T01830172
KTTF 230159Z AUTO 03007KT 10SM OVC008 18/17 A2971 RMK AO2 T01820171
KTTF 230139Z AUTO 02009KT 10SM OVC008 18/17 A2971 RMK AO2 T01820171
KTTF 230119Z AUTO 03006KT 10SM OVC008 18/17 A2970 RMK AO2 T01810170
KTTF 230059Z AUTO 04006KT 10SM OVC008 18/17 A2971 RMK AO2 T01810170
KTTF 230039Z AUTO 05007KT 10SM OVC006 18/17 A2971 RMK AO2 T01800170
KTTF 230019Z AUTO 06006KT 7SM OVC006 18/17 A2971 RMK AO2 T01800168
KTTF 222359Z AUTO 06007KT 7SM OVC006 18/17 A2972 RMK AO2 T01800169 10213 20176
KTTF 222339Z AUTO 07009G15KT 7SM OVC006 18/17 A2972 RMK AO2 T01800169
KTTF 222318Z AUTO 07009KT 7SM OVC006 18/17 A2972 RMK AO2 T01780167
KTTF 222258Z AUTO 06009KT 7SM OVC004 18/17 A2971 RMK AO2 T01770166
KTTF 222238Z AUTO 06010KT 3SM BR OVC004 18/17 A2972 RMK AO2 T01770166
KTTF 222218Z AUTO 06008KT 2 1/2SM BR OVC006 18/17 A2973 RMK AO2 T01800168
KTTF 222158Z AUTO 06010KT 2SM -DZ OVC006 18/17 A2974 RMK AO2 T01800170
KTTF 222138Z AUTO 07010G15KT 2 1/2SM -RA OVC008 18/17 A2975 RMK AO2 T01800170
KTTF 222118Z AUTO 06006KT 4SM BR OVC008 18/17 A2975 RMK AO2 T01820171
KTTF 222058Z AUTO 06006KT 5SM BR OVC008 18/17 A2975 RMK AO2 T01830172
KTTF 222038Z AUTO 06010G19KT 10SM OVC012 19/18 A2975 RMK AO2 T01860175
KTTF 222018Z AUTO 07010G15KT 10SM OVC012 19/18 A2976 RMK AO2 T01880176
KTTF 221958Z AUTO 06007KT 10SM -RA OVC016 20/18 A2976 RMK AO2 T01950175
KTTF 221938Z AUTO 06007G17KT 10SM OVC018 20/17 A2975 RMK AO2 T01980171
KTTF 221917Z AUTO 08009KT 10SM OVC020 20/17 A2976 RMK AO2 T02000170